Time;durP1;ratioP1;P1;durP2;ratioP2;P2;SDS_P1;SDS_P2;PMS_P1;PMS_P2;Temp;Humidity;BMP_temperature;BMP_pressure;BME280_temperature;BME280_humidity;BME280_pressure;Samples;Min_cycle;Max_cycle;Signal;HPM_P1;HPM_P2
2021/08/25 00:02:48;;;;;;;6.27;5.80;;;18.40;38.80;;;;;;10409656;28;20233;-73
2021/08/25 00:07:54;;;;;;;6.40;5.90;;;18.30;38.80;;;;;;10429118;28;20228;-73
2021/08/25 00:12:57;;;;;;;6.33;5.73;;;18.20;38.80;;;;;;10450309;28;20243;-73
2021/08/25 00:18:00;;;;;;;5.47;5.07;;;18.20;38.80;;;;;;10450441;28;20216;-73
2021/08/25 00:23:05;;;;;;;5.73;5.27;;;18.10;38.90;;;;;;10449995;28;20228;-73
2021/08/25 00:28:08;;;;;;;6.13;5.67;;;18.00;39.10;;;;;;10449775;28;20228;-73
2021/08/25 00:33:11;;;;;;;6.27;5.77;;;17.90;39.10;;;;;;10449600;28;20237;-73
2021/08/25 00:38:16;;;;;;;6.50;6.00;;;17.90;39.20;;;;;;10449741;28;20233;-73
2021/08/25 00:43:19;;;;;;;6.37;5.77;;;17.80;39.60;;;;;;10449456;28;20236;-73
2021/08/25 00:48:22;;;;;;;6.23;5.73;;;17.80;39.50;;;;;;10449346;28;20239;-72
2021/08/25 00:53:27;;;;;;;5.33;4.93;;;17.70;39.70;;;;;;10448693;28;20232;-73
2021/08/25 00:58:41;;;;;;;6.60;6.10;;;17.70;40.10;;;;;;10448731;28;20302;-73
2021/08/25 01:03:49;;;;;;;6.73;6.23;;;17.70;40.10;;;;;;10448589;28;20229;-72
2021/08/25 01:08:55;;;;;;;6.63;6.03;;;17.70;40.10;;;;;;10448480;28;20235;-73
2021/08/25 01:13:59;;;;;;;6.30;5.80;;;17.60;40.20;;;;;;10448333;28;20229;-73
2021/08/25 01:19:02;;;;;;;6.60;6.00;;;17.50;40.10;;;;;;10414990;28;20218;-73
2021/08/25 01:24:07;;;;;;;6.50;5.90;;;17.50;40.20;;;;;;10405970;28;20740;-73
2021/08/25 01:29:25;;;;;;;6.90;6.20;;;17.50;40.20;;;;;;10443190;28;20235;-73
2021/08/25 01:34:28;;;;;;;6.43;5.80;;;17.40;40.80;;;;;;10438864;28;20232;-73
2021/08/25 01:39:31;;;;;;;6.57;6.07;;;17.40;40.30;;;;;;10414749;28;20820;-73
2021/08/25 01:44:36;;;;;;;6.50;6.00;;;17.30;40.30;;;;;;10447210;28;20229;-73
2021/08/25 01:49:39;;;;;;;6.60;6.10;;;17.30;40.50;;;;;;10446843;28;20601;-73
2021/08/25 01:54:42;;;;;;;6.93;6.37;;;17.30;40.30;;;;;;10446438;28;20229;-73
2021/08/25 01:59:47;;;;;;;6.60;5.47;;;17.30;40.30;;;;;;10446470;28;20789;-73
2021/08/25 02:04:50;;;;;;;6.50;6.00;;;17.30;40.30;;;;;;10446573;28;20235;-73
2021/08/25 02:09:53;;;;;;;6.37;5.87;;;17.20;40.20;;;;;;10446325;28;20224;-73
2021/08/25 02:14:58;;;;;;;7.27;6.67;;;17.20;40.20;;;;;;10445615;28;20244;-74
2021/08/25 02:20:01;;;;;;;6.67;6.07;;;17.20;40.40;;;;;;10445922;28;20227;-74
2021/08/25 02:25:04;;;;;;;6.97;6.37;;;17.20;40.30;;;;;;10445315;28;20221;-74
2021/08/25 02:30:10;;;;;;;5.80;5.20;;;17.10;40.20;;;;;;10445795;28;20242;-74
2021/08/25 02:35:13;;;;;;;6.33;5.83;;;17.10;40.50;;;;;;10424406;28;20237;-74
2021/08/25 02:40:17;;;;;;;6.13;5.63;;;17.00;40.40;;;;;;10418176;28;20241;-73
2021/08/25 02:45:21;;;;;;;6.07;5.57;;;17.00;40.30;;;;;;10458087;28;20236;-73
2021/08/25 02:50:25;;;;;;;6.37;5.80;;;17.00;40.50;;;;;;10459391;28;20547;-74
2021/08/25 02:55:28;;;;;;;5.73;5.13;;;17.00;40.40;;;;;;10458885;28;20232;-74
2021/08/25 03:00:32;;;;;;;6.80;6.17;;;17.00;40.30;;;;;;10459256;28;20230;-74
2021/08/25 03:05:36;;;;;;;5.50;5.10;;;16.90;40.20;;;;;;10458914;28;20676;-74
2021/08/25 03:10:39;;;;;;;7.07;6.47;;;16.90;40.10;;;;;;10458730;28;20220;-74
2021/08/25 03:15:44;;;;;;;5.60;5.20;;;16.80;40.30;;;;;;10458841;28;20236;-73
2021/08/25 03:20:47;;;;;;;6.20;5.60;;;16.80;40.40;;;;;;10458814;28;20639;-74
2021/08/25 03:25:50;;;;;;;6.20;5.60;;;16.70;40.10;;;;;;10458441;28;20251;-74
2021/08/25 03:30:57;;;;;;;6.37;5.87;;;16.70;40.20;;;;;;10458443;28;20224;-74
2021/08/25 03:36:00;;;;;;;6.00;5.50;;;16.60;40.50;;;;;;10457938;28;20236;-73
2021/08/25 03:41:03;;;;;;;5.90;5.40;;;16.60;40.40;;;;;;10458295;28;20221;-74
2021/08/25 03:46:07;;;;;;;6.13;5.63;;;16.50;40.30;;;;;;10453538;28;20711;-74
2021/08/25 03:51:11;;;;;;;6.03;5.53;;;16.50;40.50;;;;;;10451395;28;20233;-74
2021/08/25 03:56:14;;;;;;;5.60;5.10;;;16.50;40.50;;;;;;10451097;28;20240;-74
2021/08/25 04:01:18;;;;;;;7.07;6.47;;;16.40;40.30;;;;;;10451252;28;20233;-73
2021/08/25 04:06:22;;;;;;;7.23;6.63;;;16.40;40.60;;;;;;10451040;28;20237;-74
2021/08/25 04:11:25;;;;;;;6.67;5.37;;;16.40;40.60;;;;;;10450667;28;20318;-74
2021/08/25 04:16:30;;;;;;;6.57;6.00;;;16.30;40.40;;;;;;10450634;28;20689;-74
2021/08/25 04:21:33;;;;;;;6.80;6.20;;;16.30;40.60;;;;;;10450115;28;20221;-74
2021/08/25 04:26:37;;;;;;;5.60;5.10;;;16.20;40.30;;;;;;10450206;28;20225;-74
2021/08/25 04:31:41;;;;;;;6.63;6.10;;;16.20;40.40;;;;;;10450021;28;20743;-74
2021/08/25 04:36:44;;;;;;;5.87;5.47;;;16.10;40.30;;;;;;10449721;28;20233;-73
2021/08/25 04:41:47;;;;;;;5.60;5.10;;;16.10;40.30;;;;;;10449657;28;20233;-73
2021/08/25 04:46:52;;;;;;;4.30;4.00;;;16.00;40.30;;;;;;10448992;28;20250;-74
2021/08/25 04:51:55;;;;;;;3.73;3.53;;;16.00;40.60;;;;;;10449073;28;20231;-74
2021/08/25 04:56:58;;;;;;;4.87;4.57;;;16.00;40.60;;;;;;10448049;28;20256;-73
2021/08/25 05:02:04;;;;;;;4.37;4.07;;;16.00;40.60;;;;;;10444534;28;20730;-73
2021/08/25 05:07:09;;;;;;;7.47;4.13;;;15.90;40.70;;;;;;10396802;28;20229;-74
2021/08/25 05:12:13;;;;;;;4.20;3.90;;;15.90;40.50;;;;;;10435802;28;20732;-74
2021/08/25 05:17:18;;;;;;;3.80;3.60;;;15.80;40.50;;;;;;10430392;28;20225;-74
2021/08/25 05:22:21;;;;;;;4.50;4.20;;;15.80;40.80;;;;;;10425176;28;20229;-74
2021/08/25 05:27:24;;;;;;;4.50;4.10;;;15.90;41.00;;;;;;10436759;28;20224;-74
2021/08/25 05:32:29;;;;;;;4.60;4.30;;;15.80;41.00;;;;;;10446173;28;20730;-74
2021/08/25 05:37:32;;;;;;;4.60;4.27;;;15.80;41.40;;;;;;10438693;28;20228;-74
2021/08/25 05:42:36;;;;;;;4.50;4.20;;;15.80;41.30;;;;;;10438492;28;20236;-74
2021/08/25 05:47:40;;;;;;;4.60;4.30;;;15.80;41.50;;;;;;10438482;28;20712;-74
2021/08/25 05:52:44;;;;;;;5.90;5.40;;;15.80;41.80;;;;;;10446122;28;20252;-74
2021/08/25 05:57:48;;;;;;;6.10;5.60;;;15.90;41.80;;;;;;10441343;28;20835;-74
2021/08/25 06:02:52;;;;;;;6.23;5.73;;;15.90;42.30;;;;;;10443453;28;20225;-74
2021/08/25 06:07:56;;;;;;;7.70;6.93;;;16.00;42.50;;;;;;10433011;28;20700;-74
2021/08/25 06:13:00;;;;;;;7.07;6.47;;;16.00;43.10;;;;;;10446042;28;20220;-74
2021/08/25 06:18:04;;;;;;;7.33;6.73;;;16.00;42.50;;;;;;10444753;28;20228;-73
2021/08/25 06:23:08;;;;;;;7.07;6.40;;;16.10;43.30;;;;;;10438914;28;20219;-74
2021/08/25 06:28:11;;;;;;;7.57;6.87;;;16.10;43.00;;;;;;10441242;28;20224;-73
2021/08/25 06:33:19;;;;;;;6.87;6.27;;;16.20;43.10;;;;;;10441455;28;20767;-74
2021/08/25 06:38:22;;;;;;;6.70;6.20;;;16.30;43.60;;;;;;10445879;28;20727;-75
2021/08/25 06:43:26;;;;;;;7.23;6.63;;;16.30;43.30;;;;;;10446152;28;20232;-74
2021/08/25 06:48:31;;;;;;;6.90;6.30;;;16.40;43.40;;;;;;10437009;28;21036;-73
2021/08/25 06:53:35;;;;;;;6.57;5.87;;;16.40;44.00;;;;;;10441341;28;20224;-76
2021/08/25 06:58:39;;;;;;;6.70;6.10;;;16.50;44.00;;;;;;10447612;28;20224;-76
2021/08/25 07:03:46;;;;;;;6.47;5.93;;;16.60;43.90;;;;;;10445867;28;20236;-75
2021/08/25 07:08:50;;;;;;;6.63;6.03;;;16.70;44.80;;;;;;10446386;28;20278;-74
2021/08/25 07:13:53;;;;;;;6.30;5.80;;;16.80;44.10;;;;;;10446540;28;20221;-75
2021/08/25 07:18:58;;;;;;;5.90;5.40;;;16.90;44.10;;;;;;10429852;28;20233;-75
2021/08/25 07:24:03;;;;;;;5.50;5.07;;;17.00;44.50;;;;;;10441194;28;20248;-76
2021/08/25 07:29:06;;;;;;;5.50;4.47;;;17.10;44.10;;;;;;10452471;28;20217;-75
2021/08/25 07:34:11;;;;;;;5.83;4.00;;;17.30;43.80;;;;;;10450583;28;20233;-75
2021/08/25 07:39:14;;;;;;;4.70;4.30;;;17.40;43.50;;;;;;10451750;28;20228;-75
2021/08/25 07:44:17;;;;;;;4.23;3.83;;;17.60;43.40;;;;;;10442030;28;20873;-74
2021/08/25 07:49:23;;;;;;;4.80;4.23;;;17.80;43.50;;;;;;10442239;28;20233;-74
2021/08/25 07:54:26;;;;;;;4.27;3.87;;;18.00;43.40;;;;;;10445643;28;20234;-75
2021/08/25 07:59:32;;;;;;;4.20;3.80;;;18.20;43.20;;;;;;10450443;28;20231;-75
2021/08/25 08:04:36;;;;;;;4.20;3.83;;;18.40;42.70;;;;;;10440239;28;20262;-74
2021/08/25 08:09:40;;;;;;;6.50;4.80;;;18.60;42.20;;;;;;10444669;28;20316;-74
2021/08/25 08:14:43;;;;;;;5.13;4.50;;;18.80;41.80;;;;;;10442411;28;20232;-75
2021/08/25 08:19:48;;;;;;;4.83;4.07;;;19.10;41.80;;;;;;10446697;28;20221;-74
2021/08/25 08:24:51;;;;;;;4.87;3.50;;;19.30;40.60;;;;;;10444238;28;20224;-76
2021/08/25 08:29:55;;;;;;;5.23;3.90;;;19.50;41.20;;;;;;10437610;28;20227;-76
2021/08/25 08:35:00;;;;;;;4.60;4.10;;;19.80;40.20;;;;;;10441350;28;20235;-74
2021/08/25 08:40:10;;;;;;;4.50;3.93;;;20.00;39.50;;;;;;10444863;28;20225;-74
2021/08/25 08:45:16;;;;;;;4.63;3.90;;;20.20;38.70;;;;;;10449600;28;20231;-74
2021/08/25 08:50:21;;;;;;;5.40;4.23;;;20.40;38.70;;;;;;10449543;28;20221;-74
2021/08/25 08:55:25;;;;;;;5.93;4.70;;;20.60;37.50;;;;;;10449517;28;20229;-74
2021/08/25 09:00:28;;;;;;;5.07;4.17;;;20.80;38.20;;;;;;10446756;28;20226;-74
2021/08/25 09:05:34;;;;;;;4.77;4.10;;;21.00;37.90;;;;;;10448133;28;20819;-78
2021/08/25 09:10:39;;;;;;;4.03;3.70;;;21.20;37.60;;;;;;10443459;28;20728;-75
2021/08/25 09:15:43;;;;;;;4.47;4.07;;;21.40;38.00;;;;;;10444191;28;20235;-74
2021/08/25 09:20:50;;;;;;;4.83;4.20;;;21.60;37.20;;;;;;10448825;28;20259;-75
2021/08/25 09:25:56;;;;;;;4.67;4.17;;;21.80;35.60;;;;;;10448858;28;20304;-75
2021/08/25 09:31:04;;;;;;;4.17;3.77;;;22.00;35.90;;;;;;10448084;28;20221;-75
2021/08/25 09:36:11;;;;;;;4.67;3.80;;;22.20;35.70;;;;;;10443277;28;20225;-76
2021/08/25 09:41:14;;;;;;;3.83;3.47;;;22.40;34.20;;;;;;10449443;28;20221;-76
2021/08/25 09:46:19;;;;;;;5.13;3.67;;;22.50;35.20;;;;;;10447076;28;20220;-75
2021/08/25 09:51:26;;;;;;;4.10;3.70;;;22.60;34.20;;;;;;10447203;28;20224;-77
2021/08/25 09:56:32;;;;;;;4.80;4.03;;;22.80;33.10;;;;;;10449819;28;20237;-77
2021/08/25 10:01:37;;;;;;;4.17;3.70;;;22.90;33.50;;;;;;10446696;28;20685;-76
2021/08/25 10:06:44;;;;;;;4.37;3.70;;;23.10;33.00;;;;;;10443537;28;20263;-76
2021/08/25 10:11:56;;;;;;;4.30;3.73;;;23.20;32.00;;;;;;10447264;28;20220;-75
2021/08/25 10:16:59;;;;;;;4.30;3.90;;;23.30;31.10;;;;;;10444118;28;20228;-74
2021/08/25 10:22:24;;;;;;;4.53;3.70;;;23.40;32.80;;;;;;10444499;28;20235;-74
2021/08/25 10:27:30;;;;;;;4.50;3.83;;;23.50;31.50;;;;;;10444055;28;20323;-75
2021/08/25 10:32:34;;;;;;;4.30;3.90;;;23.60;32.20;;;;;;10443243;28;20245;-75
2021/08/25 10:37:40;;;;;;;4.63;3.80;;;23.80;32.00;;;;;;10432562;28;20694;-75
2021/08/25 10:42:52;;;;;;;3.67;3.37;;;23.80;31.20;;;;;;10442538;28;20236;-75
2021/08/25 10:47:58;;;;;;;4.90;3.57;;;23.90;29.50;;;;;;10443875;28;20224;-76
2021/08/25 10:53:38;;;;;;;3.63;3.33;;;24.00;30.70;;;;;;10444377;28;20268;-74
2021/08/25 10:58:47;;;;;;;4.10;3.70;;;24.00;30.20;;;;;;10452717;28;20252;-74
2021/08/25 11:03:51;;;;;;;3.50;3.20;;;24.10;29.60;;;;;;10450612;28;20789;-77
2021/08/25 11:09:09;;;;;;;3.50;3.20;;;24.20;30.90;;;;;;10447418;28;20715;-75
2021/08/25 11:14:26;;;;;;;3.50;3.20;;;24.20;29.70;;;;;;10438016;28;20833;-76
2021/08/25 11:19:31;;;;;;;3.07;2.77;;;24.20;28.90;;;;;;10451917;28;21065;-75
2021/08/25 11:24:41;;;;;;;3.17;2.90;;;24.20;29.60;;;;;;10451067;28;20294;-76
2021/08/25 11:29:45;;;;;;;3.33;3.03;;;24.20;28.50;;;;;;10445969;28;20225;-75
2021/08/25 11:35:09;;;;;;;5.40;3.40;;;24.30;29.80;;;;;;10442408;28;20616;-75
2021/08/25 11:40:14;;;;;;;3.20;2.90;;;24.20;28.50;;;;;;10444130;28;20661;-74
2021/08/25 11:45:19;;;;;;;3.37;3.07;;;24.10;28.20;;;;;;10446804;28;20236;-75
2021/08/25 11:50:25;;;;;;;3.43;3.00;;;24.10;28.10;;;;;;10450469;28;20228;-75
2021/08/25 11:55:35;;;;;;;3.40;3.10;;;24.10;28.20;;;;;;10439192;28;20225;-75
2021/08/25 12:00:41;;;;;;;3.93;3.00;;;24.10;28.10;;;;;;10444260;28;20602;-77
2021/08/25 12:05:52;;;;;;;3.37;3.07;;;24.10;28.10;;;;;;10441145;28;20236;-77
2021/08/25 12:11:07;;;;;;;3.30;3.00;;;24.10;28.50;;;;;;10449617;28;20887;-75
2021/08/25 12:16:21;;;;;;;3.50;3.20;;;24.10;28.00;;;;;;10447553;28;20256;-74
2021/08/25 12:21:28;;;;;;;4.53;3.17;;;24.10;28.10;;;;;;10448028;28;20264;-74
2021/08/25 12:26:34;;;;;;;3.50;3.20;;;24.20;28.20;;;;;;10446639;28;20228;-75
2021/08/25 12:31:38;;;;;;;3.83;3.33;;;24.20;28.20;;;;;;10442529;28;20236;-77
2021/08/25 12:36:52;;;;;;;3.57;3.27;;;24.20;28.20;;;;;;10445205;28;20291;-78
2021/08/25 12:42:15;;;;;;;3.33;3.03;;;24.10;28.10;;;;;;10443429;28;20229;-74
2021/08/25 12:47:18;;;;;;;3.30;3.00;;;24.10;28.10;;;;;;10433805;28;20307;-74
2021/08/25 12:52:22;;;;;;;3.30;3.03;;;24.10;28.10;;;;;;10438535;28;20237;-73
2021/08/25 12:57:26;;;;;;;3.10;2.80;;;24.10;28.20;;;;;;10440616;28;20585;-73
2021/08/25 13:02:30;;;;;;;3.73;3.23;;;24.20;28.10;;;;;;10443155;28;20225;-73
2021/08/25 13:07:34;;;;;;;3.33;2.83;;;24.20;28.20;;;;;;10441446;28;20938;-76
2021/08/25 13:12:45;;;;;;;3.43;2.90;;;24.20;28.20;;;;;;10434380;28;20235;-77
2021/08/25 13:17:48;;;;;;;3.63;3.30;;;24.20;27.00;;;;;;10432300;28;20254;-76
2021/08/25 13:22:51;;;;;;;3.70;3.40;;;24.30;28.20;;;;;;10445546;28;20225;-77
2021/08/25 13:27:56;;;;;;;3.03;2.73;;;24.20;28.20;;;;;;10446242;28;20228;-76
2021/08/25 13:32:59;;;;;;;3.53;3.23;;;24.20;27.80;;;;;;10437922;28;20320;-76
2021/08/25 13:38:02;;;;;;;3.40;3.10;;;24.20;28.20;;;;;;10444097;28;20227;-76
2021/08/25 13:43:07;;;;;;;3.10;2.80;;;24.20;28.20;;;;;;10446083;28;20240;-75
2021/08/25 13:48:10;;;;;;;3.87;3.40;;;24.20;27.70;;;;;;10433469;28;20225;-75
2021/08/25 13:53:13;;;;;;;3.40;3.03;;;24.20;28.20;;;;;;10439541;28;20230;-75
2021/08/25 13:58:18;;;;;;;4.40;3.23;;;24.20;28.10;;;;;;10440508;28;20224;-75
2021/08/25 14:03:22;;;;;;;3.43;3.13;;;24.20;26.60;;;;;;10441130;28;21289;-75
2021/08/25 14:08:25;;;;;;;2.93;2.70;;;24.20;27.60;;;;;;10438355;28;20248;-75
2021/08/25 14:13:30;;;;;;;3.67;3.20;;;24.20;27.50;;;;;;10440185;28;20237;-75
2021/08/25 14:18:34;;;;;;;4.93;3.50;;;24.20;26.80;;;;;;10438925;28;20228;-76
2021/08/25 14:23:37;;;;;;;3.60;3.30;;;24.30;27.20;;;;;;10440901;28;20229;-75
2021/08/25 14:28:42;;;;;;;4.07;2.97;;;24.30;27.40;;;;;;10432674;28;20231;-76
2021/08/25 14:33:45;;;;;;;3.67;3.37;;;24.40;27.20;;;;;;10442856;28;20675;-76
2021/08/25 14:38:49;;;;;;;4.03;3.07;;;24.40;27.20;;;;;;10439443;28;20315;-77
2021/08/25 14:43:55;;;;;;;3.47;3.17;;;24.40;27.40;;;;;;10441368;28;20274;-77
2021/08/25 14:49:00;;;;;;;3.43;3.07;;;24.50;26.10;;;;;;10437997;28;20231;-76
2021/08/25 14:54:04;;;;;;;3.57;3.20;;;24.50;26.40;;;;;;10442624;28;20745;-75
2021/08/25 14:59:09;;;;;;;3.60;3.30;;;24.50;26.80;;;;;;10443118;28;20228;-75
2021/08/25 15:04:12;;;;;;;3.60;3.20;;;24.50;26.60;;;;;;10446851;28;20240;-76
2021/08/25 15:09:15;;;;;;;3.60;3.10;;;24.50;26.90;;;;;;10444500;28;20731;-76
2021/08/25 15:14:20;;;;;;;4.63;3.23;;;24.50;26.50;;;;;;10440360;28;20225;-77
2021/08/25 15:19:23;;;;;;;3.60;3.20;;;24.50;26.10;;;;;;10443930;28;20259;-76
2021/08/25 15:24:28;;;;;;;4.10;3.20;;;24.50;26.50;;;;;;10440482;28;20243;-75
2021/08/25 15:29:38;;;;;;;3.27;2.97;;;24.40;26.00;;;;;;10439910;28;20572;-76
2021/08/25 15:34:42;;;;;;;3.50;3.10;;;24.50;25.50;;;;;;10444859;28;20233;-75
2021/08/25 15:39:45;;;;;;;3.37;2.93;;;24.50;26.10;;;;;;10443603;28;20231;-75
2021/08/25 15:44:51;;;;;;;3.20;2.90;;;24.50;26.30;;;;;;10450876;28;20217;-77
2021/08/25 15:49:54;;;;;;;3.23;2.93;;;24.50;25.90;;;;;;10445262;28;20316;-77
2021/08/25 15:54:58;;;;;;;3.10;2.90;;;24.50;26.30;;;;;;10442416;28;20650;-77
2021/08/25 16:00:03;;;;;;;3.67;3.20;;;24.50;26.30;;;;;;10451551;28;20723;-78
2021/08/25 16:05:07;;;;;;;3.67;2.97;;;24.50;25.90;;;;;;10441660;28;20750;-77
2021/08/25 16:10:11;;;;;;;3.10;2.80;;;24.50;26.90;;;;;;10446958;28;20227;-77
2021/08/25 16:15:15;;;;;;;3.67;2.90;;;24.60;26.30;;;;;;10450594;28;20606;-78
2021/08/25 16:20:19;;;;;;;4.53;3.47;;;24.60;25.80;;;;;;10450931;28;20241;-77
2021/08/25 16:25:22;;;;;;;3.47;3.17;;;24.60;26.00;;;;;;10451090;28;20247;-77
2021/08/25 16:30:27;;;;;;;3.37;3.07;;;24.60;26.00;;;;;;10436236;28;20261;-78
2021/08/25 16:35:31;;;;;;;3.33;3.03;;;24.60;25.60;;;;;;10447990;28;20235;-77
2021/08/25 16:40:34;;;;;;;3.63;3.33;;;24.60;25.60;;;;;;10450217;28;20279;-77
2021/08/25 16:45:40;;;;;;;3.97;3.50;;;24.60;25.70;;;;;;10446975;28;20229;-77
2021/08/25 16:50:44;;;;;;;3.27;2.97;;;24.60;25.80;;;;;;10449292;28;20299;-78
2021/08/25 16:55:47;;;;;;;3.30;3.00;;;24.60;25.90;;;;;;10449814;28;20953;-78
2021/08/25 17:00:53;;;;;;;3.50;3.20;;;24.60;26.00;;;;;;10449867;28;20237;-78
2021/08/25 17:05:58;;;;;;;3.90;2.80;;;24.60;25.80;;;;;;10450392;28;20236;-78
2021/08/25 17:11:01;;;;;;;3.53;3.10;;;24.50;25.60;;;;;;10449563;28;20612;-77
2021/08/25 17:16:07;;;;;;;3.23;2.93;;;24.40;26.00;;;;;;10449085;28;20217;-78
2021/08/25 17:21:12;;;;;;;3.10;2.90;;;24.20;25.80;;;;;;10449203;28;20228;-78
2021/08/25 17:26:15;;;;;;;3.97;3.17;;;24.10;26.20;;;;;;10449585;28;20232;-78
2021/08/25 17:31:20;;;;;;;3.63;2.90;;;24.00;26.30;;;;;;10449398;28;20685;-78
2021/08/25 17:36:23;;;;;;;3.43;3.13;;;23.90;26.40;;;;;;10449018;28;20326;-77
2021/08/25 17:41:27;;;;;;;3.67;3.33;;;23.80;26.80;;;;;;10449078;28;20255;-78
2021/08/25 17:46:31;;;;;;;3.90;2.90;;;23.70;27.30;;;;;;10448094;28;20868;-77
2021/08/25 17:51:34;;;;;;;2.97;2.73;;;23.60;27.80;;;;;;10448101;28;20311;-77
2021/08/25 17:56:42;;;;;;;3.90;3.07;;;23.60;27.80;;;;;;10446903;28;20235;-77
2021/08/25 18:01:46;;;;;;;3.17;2.87;;;23.50;27.70;;;;;;10447502;28;20732;-78
2021/08/25 18:06:51;;;;;;;4.53;3.10;;;23.40;27.60;;;;;;10447158;28;20247;-77
2021/08/25 18:11:54;;;;;;;3.73;2.87;;;23.30;27.50;;;;;;10447877;28;20713;-78
2021/08/25 18:16:58;;;;;;;3.10;2.80;;;23.20;27.50;;;;;;10448380;28;20232;-77
2021/08/25 18:22:02;;;;;;;4.23;3.67;;;23.10;27.40;;;;;;10443486;28;20252;-76
2021/08/25 18:27:07;;;;;;;3.50;3.20;;;23.00;27.40;;;;;;10439472;28;20725;-76
2021/08/25 18:32:11;;;;;;;4.43;3.27;;;22.90;27.70;;;;;;10445138;28;20698;-77
2021/08/25 18:37:15;;;;;;;3.53;3.23;;;22.70;27.90;;;;;;10449576;28;20225;-77
2021/08/25 18:42:18;;;;;;;4.60;3.27;;;22.50;28.00;;;;;;10449554;28;20239;-77
2021/08/25 18:47:22;;;;;;;3.57;2.97;;;22.50;28.20;;;;;;10450282;28;20221;-77
2021/08/25 18:52:26;;;;;;;5.10;4.60;;;22.30;28.20;;;;;;10448097;28;20229;-77
2021/08/25 18:57:29;;;;;;;7.43;6.27;;;22.20;28.20;;;;;;10449757;28;20601;-77
2021/08/25 19:02:35;;;;;;;5.00;4.50;;;22.00;28.40;;;;;;10446937;28;20237;-77
2021/08/25 19:07:38;;;;;;;5.00;4.50;;;21.80;28.70;;;;;;10448211;28;20233;-77
2021/08/25 19:12:42;;;;;;;4.33;3.60;;;21.50;28.50;;;;;;10445799;28;20272;-77
2021/08/25 19:17:46;;;;;;;4.17;3.57;;;21.30;28.60;;;;;;10451742;28;20713;-77
2021/08/25 19:22:50;;;;;;;4.27;3.60;;;20.90;29.00;;;;;;10454516;28;20816;-77
2021/08/25 19:27:53;;;;;;;5.23;3.90;;;20.60;29.10;;;;;;10456042;28;20298;-76
2021/08/25 19:32:58;;;;;;;3.60;3.23;;;20.40;29.50;;;;;;10456655;28;20235;-77
2021/08/25 19:38:02;;;;;;;5.50;3.77;;;20.20;30.10;;;;;;10450826;28;20316;-77
2021/08/25 19:43:05;;;;;;;4.40;3.40;;;20.20;30.20;;;;;;10454223;28;20255;-76
2021/08/25 19:48:11;;;;;;;3.70;3.23;;;20.00;30.10;;;;;;10452241;28;20633;-77
2021/08/25 19:53:14;;;;;;;3.83;3.40;;;19.80;30.60;;;;;;10454394;28;20307;-78
2021/08/25 19:58:17;;;;;;;3.53;3.23;;;19.60;30.60;;;;;;10454851;28;20228;-76
2021/08/25 20:03:22;;;;;;;4.17;3.77;;;19.50;31.00;;;;;;10453731;28;20311;-76
2021/08/25 20:08:26;;;;;;;3.70;2.93;;;19.50;32.00;;;;;;10454023;28;20224;-77
2021/08/25 20:13:29;;;;;;;4.73;3.30;;;19.50;31.70;;;;;;10452781;28;20255;-77
2021/08/25 20:18:34;;;;;;;4.17;3.50;;;19.50;31.70;;;;;;10455731;28;20312;-77
2021/08/25 20:23:38;;;;;;;4.33;3.50;;;19.50;32.30;;;;;;10452279;28;20256;-77
2021/08/25 20:28:41;;;;;;;4.30;3.90;;;19.50;32.20;;;;;;10450626;28;20312;-77
2021/08/25 20:33:46;;;;;;;4.53;3.57;;;19.40;31.90;;;;;;10453838;28;20299;-77
2021/08/25 20:38:50;;;;;;;4.33;3.90;;;19.40;32.70;;;;;;10454749;28;20231;-78
2021/08/25 20:43:53;;;;;;;3.87;3.37;;;19.30;32.40;;;;;;10442717;28;20235;-77
2021/08/25 20:48:57;;;;;;;4.27;3.23;;;19.30;33.20;;;;;;10446631;28;20224;-77
2021/08/25 20:54:02;;;;;;;3.53;3.23;;;19.30;33.00;;;;;;10449262;28;20236;-77
2021/08/25 20:59:05;;;;;;;4.83;3.67;;;19.30;33.10;;;;;;10450325;28;20823;-78
2021/08/25 21:04:09;;;;;;;4.87;3.80;;;19.30;32.90;;;;;;10451312;28;20255;-77
2021/08/25 21:09:13;;;;;;;4.40;4.00;;;19.30;33.30;;;;;;10441887;28;20224;-77
2021/08/25 21:14:17;;;;;;;5.13;3.60;;;19.30;33.00;;;;;;10433686;28;20233;-77
2021/08/25 21:19:21;;;;;;;6.63;4.37;;;19.30;33.30;;;;;;10448869;28;20229;-77
2021/08/25 21:24:24;;;;;;;4.63;3.93;;;19.20;33.80;;;;;;10448565;28;20612;-77
2021/08/25 21:29:28;;;;;;;6.57;4.30;;;19.20;33.20;;;;;;10448029;28;20596;-77
2021/08/25 21:34:32;;;;;;;4.60;4.20;;;19.10;33.20;;;;;;10448079;28;20728;-77
2021/08/25 21:39:36;;;;;;;6.93;4.30;;;19.00;34.00;;;;;;10422986;28;20692;-77
2021/08/25 21:44:39;;;;;;;4.43;3.53;;;18.90;33.60;;;;;;10447751;28;20228;-77
2021/08/25 21:49:45;;;;;;;4.67;4.17;;;18.80;33.70;;;;;;10441563;28;20236;-77
2021/08/25 21:54:49;;;;;;;5.47;4.43;;;18.80;34.90;;;;;;10430803;28;20248;-77
2021/08/25 22:00:04;;;;;;;5.33;4.70;;;18.70;33.90;;;;;;10442761;28;20235;-77
2021/08/25 22:05:10;;;;;;;5.03;4.37;;;18.60;34.00;;;;;;10443615;28;20224;-77
2021/08/25 22:10:14;;;;;;;6.60;4.00;;;18.50;35.10;;;;;;10441911;28;20225;-77
2021/08/25 22:15:17;;;;;;;5.23;4.40;;;18.50;34.90;;;;;;10446970;28;20234;-77
2021/08/25 22:20:22;;;;;;;5.73;4.67;;;18.50;34.60;;;;;;10437279;28;20774;-77
2021/08/25 22:25:25;;;;;;;4.87;4.40;;;18.50;35.20;;;;;;10441375;28;20229;-77
2021/08/25 22:30:28;;;;;;;5.30;4.70;;;18.50;34.70;;;;;;10441437;28;20228;-77
2021/08/25 22:35:33;;;;;;;5.97;4.87;;;18.50;35.20;;;;;;10443720;28;20248;-77
2021/08/25 22:40:36;;;;;;;5.03;4.63;;;18.50;35.20;;;;;;10427401;28;20239;-77
2021/08/25 22:45:39;;;;;;;4.70;4.13;;;18.40;35.10;;;;;;10446375;28;20243;-77
2021/08/25 22:50:45;;;;;;;4.43;4.00;;;18.40;35.10;;;;;;10449764;28;20709;-77
2021/08/25 22:55:48;;;;;;;4.73;4.23;;;18.30;35.20;;;;;;10453474;28;20276;-77
2021/08/25 23:00:51;;;;;;;5.53;4.50;;;18.30;35.00;;;;;;10447784;28;20228;-77
2021/08/25 23:05:56;;;;;;;5.20;4.67;;;18.20;34.90;;;;;;10437815;28;20233;-77
2021/08/25 23:10:59;;;;;;;4.90;4.40;;;18.20;35.50;;;;;;10454191;28;20225;-77
2021/08/25 23:16:03;;;;;;;5.47;4.67;;;18.20;34.90;;;;;;10452328;28;20343;-77
2021/08/25 23:21:07;;;;;;;4.80;4.03;;;18.20;35.00;;;;;;10444588;28;20244;-77
2021/08/25 23:26:10;;;;;;;5.27;4.73;;;18.20;35.60;;;;;;10452662;28;20247;-77
2021/08/25 23:31:13;;;;;;;5.47;4.37;;;18.20;35.10;;;;;;10453182;28;20225;-77
2021/08/25 23:36:18;;;;;;;5.87;4.70;;;18.20;35.10;;;;;;10453393;28;20241;-77
2021/08/25 23:41:21;;;;;;;5.33;4.67;;;18.20;35.80;;;;;;10452991;28;20336;-77
2021/08/25 23:46:25;;;;;;;4.87;4.00;;;18.20;35.30;;;;;;10452652;28;20689;-77
2021/08/25 23:51:29;;;;;;;4.67;3.93;;;18.20;35.30;;;;;;10442339;28;20233;-77
2021/08/25 23:56:34;;;;;;;4.90;4.30;;;18.20;35.80;;;;;;10450423;28;20225;-77
